Time;durP1;ratioP1;P1;durP2;ratioP2;P2;SDS_P1;SDS_P2;PMS_P1;PMS_P2;Temp;Humidity;BMP_temperature;BMP_pressure;BME280_temperature;BME280_humidity;BME280_pressure;Samples;Min_cycle;Max_cycle;Signal;HPM_P1;HPM_P2
2022/01/05 00:02:15;;;;;;;0.80;0.80;;;1.70;99.90;;;;;;5043476;28;20062;-81
2022/01/05 00:04:41;;;;;;;1.27;0.88;;;1.60;99.90;;;;;;5037834;28;20041;-82
2022/01/05 00:07:07;;;;;;;0.80;0.80;;;1.60;99.90;;;;;;5039631;28;20047;-81
2022/01/05 00:09:33;;;;;;;1.00;1.00;;;1.50;99.90;;;;;;5082186;28;20037;-81
2022/01/05 00:11:59;;;;;;;;;;;1.60;99.90;;;;;;5018956;28;20033;-80
2022/01/05 00:14:24;;;;;;;1.00;0.90;;;1.50;99.90;;;;;;5067958;28;19966;-80
2022/01/05 00:16:50;;;;;;;1.75;1.45;;;1.70;99.90;;;;;;5034695;28;20117;-80
2022/01/05 00:19:16;;;;;;;2.03;1.13;;;1.40;99.90;;;;;;5041286;28;20099;-78
2022/01/05 00:21:42;;;;;;;1.33;1.23;;;1.40;99.90;;;;;;5077014;28;20043;-79
2022/01/05 00:24:09;;;;;;;0.80;0.80;;;1.40;99.90;;;;;;5018341;28;20475;-80
2022/01/05 00:26:35;;;;;;;3.22;0.90;;;1.40;99.90;;;;;;5025952;28;20033;-81
2022/01/05 00:29:01;;;;;;;;;;;2.00;99.90;;;;;;5056322;28;20043;-82
2022/01/05 00:31:27;;;;;;;0.75;0.75;;;1.00;99.90;;;;;;5056528;28;20275;-80
2022/01/05 00:33:53;;;;;;;5.10;1.20;;;1.10;99.90;;;;;;5086777;28;20549;-80
2022/01/05 00:36:19;;;;;;;0.88;0.88;;;0.90;99.90;;;;;;5040477;28;20076;-79
2022/01/05 00:38:46;;;;;;;4.10;1.27;;;1.20;99.90;;;;;;5014290;28;20045;-79
2022/01/05 00:41:12;;;;;;;1.20;1.10;;;1.20;99.90;;;;;;5037001;28;20042;-80
2022/01/05 00:43:38;;;;;;;4.15;1.45;;;1.40;99.90;;;;;;5023272;28;20111;-80
2022/01/05 00:46:05;;;;;;;1.17;1.08;;;0.90;99.90;;;;;;5050953;28;20033;-79
2022/01/05 00:48:32;;;;;;;1.20;1.15;;;1.20;99.90;;;;;;5036637;28;20052;-80
2022/01/05 00:51:02;;;;;;;1.20;1.08;;;0.70;99.90;;;;;;5034044;28;20072;-80
2022/01/05 00:53:28;;;;;;;1.75;1.17;;;1.40;99.90;;;;;;5063554;28;20036;-80
2022/01/05 00:55:59;;;;;;;1.10;1.00;;;1.30;99.90;;;;;;5020892;28;20080;-79
2022/01/05 00:58:25;;;;;;;2.53;1.27;;;1.70;99.90;;;;;;5020383;28;20395;-78
2022/01/05 01:00:51;;;;;;;1.63;1.52;;;2.30;99.90;;;;;;5053113;28;20130;-79
2022/01/05 01:03:17;;;;;;;1.48;1.38;;;1.80;99.90;;;;;;5050790;28;20044;-79
2022/01/05 01:05:43;;;;;;;;;;;1.80;99.90;;;;;;5038405;28;20041;-80
2022/01/05 01:08:09;;;;;;;6.35;1.60;;;2.10;99.90;;;;;;5095302;28;19946;-78
2022/01/05 01:10:35;;;;;;;1.70;1.23;;;1.90;99.90;;;;;;5032184;28;20043;-78
2022/01/05 01:13:01;;;;;;;1.50;1.05;;;1.60;99.90;;;;;;5054595;28;20044;-79
2022/01/05 01:15:27;;;;;;;3.60;1.30;;;2.10;99.90;;;;;;5058446;28;20503;-80
2022/01/05 01:17:53;;;;;;;4.03;1.25;;;2.40;99.90;;;;;;5023772;28;20059;-78
2022/01/05 01:20:20;;;;;;;3.65;1.73;;;1.70;99.90;;;;;;5055141;28;20037;-80
2022/01/05 01:22:47;;;;;;;3.30;1.42;;;1.90;99.90;;;;;;5017273;28;20045;-76
2022/01/05 01:25:12;;;;;;;5.05;1.55;;;3.50;99.90;;;;;;5018719;28;20036;-81
2022/01/05 01:27:40;;;;;;;1.38;1.10;;;1.90;99.90;;;;;;5042808;28;20124;-80
2022/01/05 01:30:07;;;;;;;2.67;2.20;;;2.60;99.90;;;;;;5037239;28;20103;-79
2022/01/05 01:32:33;;;;;;;7.43;2.10;;;2.60;99.90;;;;;;5048648;28;20048;-80
2022/01/05 01:34:59;;;;;;;4.30;1.60;;;2.50;99.90;;;;;;5052220;28;20045;-80
2022/01/05 01:37:25;;;;;;;1.83;1.15;;;3.70;99.90;;;;;;5034350;28;20047;-79
2022/01/05 01:39:50;;;;;;;3.72;1.38;;;3.20;99.90;;;;;;5036604;28;20435;-79
2022/01/05 01:42:16;;;;;;;4.22;1.67;;;2.50;99.90;;;;;;5049343;28;20033;-80
2022/01/05 01:44:43;;;;;;;1.83;1.33;;;2.50;99.90;;;;;;5034280;28;20044;-81
2022/01/05 01:47:08;;;;;;;5.18;1.83;;;2.60;99.90;;;;;;5032024;28;20040;-80
2022/01/05 01:49:35;;;;;;;2.97;1.55;;;2.80;99.90;;;;;;5065698;28;20043;-78
2022/01/05 01:52:01;;;;;;;4.10;1.60;;;2.80;99.90;;;;;;5047229;28;20049;-80
2022/01/05 01:54:28;;;;;;;9.23;2.70;;;2.90;99.90;;;;;;5052564;28;20072;-79
2022/01/05 01:56:54;;;;;;;3.92;1.65;;;2.90;99.90;;;;;;5035350;28;20082;-78
2022/01/05 01:59:20;;;;;;;1.40;1.20;;;2.90;99.90;;;;;;5050375;28;20430;-80
2022/01/05 02:01:45;;;;;;;1.73;1.40;;;2.90;99.90;;;;;;5022118;28;20113;-80
2022/01/05 02:04:11;;;;;;;2.30;1.23;;;3.50;99.90;;;;;;5057713;28;20095;-79
2022/01/05 02:06:37;;;;;;;5.47;2.30;;;2.80;99.90;;;;;;5049394;28;20049;-79
2022/01/05 02:09:04;;;;;;;7.57;1.50;;;3.50;99.90;;;;;;5056119;28;20136;-79
2022/01/05 02:11:33;;;;;;;15.35;1.95;;;2.90;99.90;;;;;;5037516;28;20451;-79
2022/01/05 02:13:59;;;;;;;1.20;1.10;;;4.30;99.90;;;;;;5050691;28;20048;-80
2022/01/05 02:16:31;;;;;;;2.22;1.15;;;3.60;99.90;;;;;;5020676;28;20037;-79
2022/01/05 02:18:58;;;;;;;0.98;0.90;;;3.10;99.90;;;;;;5053941;28;20517;-81
2022/01/05 02:21:25;;;;;;;1.50;1.00;;;4.20;99.90;;;;;;5021319;28;20041;-80
2022/01/05 02:23:51;;;;;;;2.28;1.52;;;3.20;99.90;;;;;;5032379;28;20039;-80
2022/01/05 02:26:17;;;;;;;2.55;1.40;;;2.70;99.90;;;;;;5032196;28;20479;-81
2022/01/05 02:28:43;;;;;;;1.40;1.13;;;2.60;99.90;;;;;;5051589;28;20095;-81
2022/01/05 02:31:09;;;;;;;2.05;1.42;;;2.60;99.90;;;;;;5047329;28;20140;-81
2022/01/05 02:33:35;;;;;;;;;;;2.70;99.90;;;;;;5031318;28;20045;-80
2022/01/05 02:36:04;;;;;;;7.70;1.90;;;2.70;99.90;;;;;;5053654;28;19928;-81
2022/01/05 02:38:29;;;;;;;1.88;1.23;;;2.90;99.90;;;;;;5032425;28;20049;-81
2022/01/05 02:40:55;;;;;;;5.78;1.95;;;2.90;99.90;;;;;;5056537;28;20033;-83
2022/01/05 02:43:21;;;;;;;7.70;1.77;;;2.90;99.90;;;;;;5057038;28;20088;-78
2022/01/05 02:45:47;;;;;;;3.60;1.80;;;2.90;99.90;;;;;;5026309;28;20115;-79
2022/01/05 02:48:13;;;;;;;19.38;2.03;;;3.50;99.90;;;;;;5040449;28;20041;-79
2022/01/05 02:50:39;;;;;;;2.20;1.50;;;3.30;99.90;;;;;;5031862;28;20044;-77
2022/01/05 02:53:04;;;;;;;7.13;2.60;;;3.00;99.90;;;;;;5036931;28;20098;-81
2022/01/05 02:55:30;;;;;;;5.35;2.30;;;3.00;99.90;;;;;;5054878;28;20045;-79
2022/01/05 02:57:56;;;;;;;5.50;1.52;;;3.00;99.90;;;;;;5032881;28;20049;-79
2022/01/05 03:00:22;;;;;;;6.60;2.17;;;3.10;99.90;;;;;;5037439;28;20118;-79
2022/01/05 03:02:49;;;;;;;2.63;1.55;;;3.30;99.90;;;;;;5056515;28;20049;-80
2022/01/05 03:05:15;;;;;;;11.57;2.15;;;3.40;99.90;;;;;;5021514;28;20029;-78
2022/01/05 03:07:41;;;;;;;1.48;1.38;;;3.50;99.90;;;;;;5038984;28;20060;-79
2022/01/05 03:10:09;;;;;;;3.97;1.45;;;4.70;99.90;;;;;;5035525;28;20033;-79
2022/01/05 03:12:38;;;;;;;4.80;1.52;;;3.60;99.90;;;;;;5054691;28;20491;-80
2022/01/05 03:15:04;;;;;;;4.75;1.67;;;3.70;99.90;;;;;;5040285;28;20476;-80
2022/01/05 03:17:30;;;;;;;1.40;1.30;;;3.60;99.90;;;;;;5050494;28;20037;-81
2022/01/05 03:19:56;;;;;;;4.63;1.80;;;3.60;99.90;;;;;;5052275;28;20505;-79
2022/01/05 03:22:21;;;;;;;3.47;1.67;;;3.60;99.90;;;;;;5052505;28;20043;-81
2022/01/05 03:24:47;;;;;;;1.88;1.27;;;3.90;99.90;;;;;;5036360;28;20042;-81
2022/01/05 03:27:13;;;;;;;3.67;1.60;;;3.50;99.90;;;;;;5056140;28;20047;-79
2022/01/05 03:29:39;;;;;;;3.78;1.63;;;3.50;99.90;;;;;;5056218;28;20688;-79
2022/01/05 03:32:06;;;;;;;4.72;1.27;;;3.40;99.90;;;;;;5040292;28;20053;-79
2022/01/05 03:34:32;;;;;;;;;;;3.30;99.90;;;;;;5037671;28;20037;-81
2022/01/05 03:36:59;;;;;;;2.63;1.40;;;3.20;99.90;;;;;;5047714;28;19917;-80
2022/01/05 03:39:26;;;;;;;1.50;0.90;;;3.90;99.90;;;;;;5052841;28;20041;-78
2022/01/05 03:41:52;;;;;;;1.33;1.23;;;3.20;99.90;;;;;;5038676;28;20037;-79
2022/01/05 03:44:18;;;;;;;1.85;1.40;;;3.30;99.90;;;;;;5023981;28;20489;-81
2022/01/05 03:46:43;;;;;;;3.83;2.08;;;4.00;99.90;;;;;;5051385;28;20143;-79
2022/01/05 03:49:09;;;;;;;4.35;1.33;;;4.00;99.90;;;;;;5014873;28;20045;-80
2022/01/05 03:51:35;;;;;;;1.70;1.48;;;3.10;99.90;;;;;;5069786;28;20048;-86
2022/01/05 03:54:01;;;;;;;7.13;1.85;;;3.10;99.90;;;;;;5013569;28;20049;-80
2022/01/05 03:56:26;;;;;;;4.40;1.58;;;3.10;99.90;;;;;;5037377;28;20048;-80
2022/01/05 03:58:52;;;;;;;4.00;1.38;;;3.10;99.90;;;;;;5051264;28;20073;-78
2022/01/05 04:01:18;;;;;;;2.40;1.52;;;3.20;99.90;;;;;;5070422;28;20037;-79
2022/01/05 04:03:44;;;;;;;4.28;1.33;;;3.20;99.90;;;;;;5022221;28;20501;-81
2022/01/05 04:06:10;;;;;;;2.67;1.15;;;3.30;99.90;;;;;;5020092;28;20045;-79
2022/01/05 04:08:35;;;;;;;2.45;1.73;;;3.30;99.90;;;;;;5054769;28;20080;-79
2022/01/05 04:11:02;;;;;;;3.28;1.33;;;3.60;99.90;;;;;;5040245;28;20445;-79
2022/01/05 04:13:27;;;;;;;0.75;0.75;;;3.30;99.90;;;;;;5037135;28;20095;-80
2022/01/05 04:15:53;;;;;;;6.03;1.70;;;3.30;99.90;;;;;;5047548;28;20041;-79
2022/01/05 04:18:19;;;;;;;7.63;1.60;;;3.30;99.90;;;;;;5037786;28;20056;-79
2022/01/05 04:20:44;;;;;;;0.95;0.80;;;3.90;99.90;;;;;;5023107;28;20522;-80
2022/01/05 04:23:10;;;;;;;1.38;1.27;;;3.70;99.90;;;;;;5054666;28;20036;-78
2022/01/05 04:25:36;;;;;;;2.20;0.98;;;3.30;99.90;;;;;;5035758;28;20084;-79
2022/01/05 04:28:03;;;;;;;2.50;1.38;;;3.30;99.90;;;;;;5038778;28;20421;-78
2022/01/05 04:30:29;;;;;;;0.88;0.88;;;3.30;99.90;;;;;;5027450;28;20061;-81
2022/01/05 04:32:55;;;;;;;3.53;1.08;;;3.20;99.90;;;;;;5032131;28;20053;-79
2022/01/05 04:35:20;;;;;;;1.23;1.13;;;3.30;99.90;;;;;;5034265;28;20051;-78
2022/01/05 04:37:46;;;;;;;4.38;1.15;;;3.20;99.90;;;;;;5035093;28;20045;-80
2022/01/05 04:40:12;;;;;;;2.03;1.20;;;3.20;99.90;;;;;;5018405;28;20045;-79
2022/01/05 04:42:39;;;;;;;3.83;1.20;;;3.10;99.90;;;;;;5054939;28;20037;-79
2022/01/05 04:45:05;;;;;;;2.47;1.08;;;4.30;99.90;;;;;;5054585;28;20063;-81
2022/01/05 04:47:32;;;;;;;3.42;1.35;;;3.10;99.90;;;;;;5038443;28;20051;-80
2022/01/05 04:49:57;;;;;;;4.20;1.90;;;3.80;99.90;;;;;;5037188;28;20047;-78
2022/01/05 04:52:23;;;;;;;3.20;1.67;;;3.30;99.90;;;;;;5022206;28;20371;-78
2022/01/05 04:54:49;;;;;;;3.40;1.75;;;3.00;99.90;;;;;;5032303;28;20049;-77
2022/01/05 04:57:16;;;;;;;2.50;1.38;;;3.20;99.90;;;;;;5038985;28;20047;-78
2022/01/05 04:59:42;;;;;;;1.23;1.10;;;3.20;99.90;;;;;;5051682;28;20037;-79
2022/01/05 05:02:11;;;;;;;7.90;2.05;;;3.20;99.90;;;;;;5054038;28;20025;-79
2022/01/05 05:04:38;;;;;;;3.03;1.45;;;3.40;99.90;;;;;;5017656;28;20030;-80
2022/01/05 05:07:04;;;;;;;5.57;1.65;;;3.50;99.90;;;;;;5036176;28;20116;-78
2022/01/05 05:09:30;;;;;;;0.70;0.70;;;3.50;99.90;;;;;;5027214;28;20079;-78
2022/01/05 05:11:55;;;;;;;14.52;2.05;;;4.40;99.90;;;;;;5032102;28;20046;-78
2022/01/05 05:14:21;;;;;;;3.55;1.70;;;3.50;99.90;;;;;;5043244;28;20437;-78
2022/01/05 05:16:47;;;;;;;1.45;1.02;;;3.50;99.90;;;;;;5015188;28;20045;-80
2022/01/05 05:19:13;;;;;;;4.30;1.60;;;3.60;99.90;;;;;;5038375;28;20051;-81
2022/01/05 05:21:38;;;;;;;9.15;2.30;;;4.40;99.90;;;;;;5018394;28;20041;-79
2022/01/05 05:24:04;;;;;;;8.50;2.25;;;3.60;99.90;;;;;;5031406;28;20045;-79
2022/01/05 05:26:30;;;;;;;13.60;2.10;;;3.70;99.90;;;;;;5031579;28;20044;-80
2022/01/05 05:28:56;;;;;;;3.80;1.55;;;4.90;99.90;;;;;;5030365;28;20029;-84
2022/01/05 05:31:22;;;;;;;4.10;1.65;;;3.70;99.90;;;;;;5034641;28;20056;-79
2022/01/05 05:33:47;;;;;;;0.90;0.90;;;3.90;99.90;;;;;;5043633;28;20068;-82
2022/01/05 05:36:13;;;;;;;3.67;1.38;;;3.80;99.90;;;;;;5016074;28;20115;-80
2022/01/05 05:38:39;;;;;;;4.68;1.90;;;3.80;99.90;;;;;;5036844;28;20461;-81
2022/01/05 05:41:04;;;;;;;1.17;1.08;;;4.30;99.90;;;;;;5027443;28;20041;-81
2022/01/05 05:43:30;;;;;;;4.35;1.50;;;3.80;99.90;;;;;;5071729;28;20068;-81
2022/01/05 05:45:56;;;;;;;;;;;3.80;99.90;;;;;;5043378;28;20120;-84
2022/01/05 05:48:22;;;;;;;1.20;1.10;;;3.70;99.90;;;;;;5046151;28;19955;-83
2022/01/05 05:50:47;;;;;;;1.73;0.93;;;4.20;99.90;;;;;;5047156;28;20049;-80
2022/01/05 05:53:14;;;;;;;0.88;0.88;;;3.30;99.90;;;;;;5032647;28;20140;-80
2022/01/05 05:55:39;;;;;;;;;;;3.10;99.90;;;;;;5046247;28;20041;-80
2022/01/05 05:58:05;;;;;;;2.72;1.63;;;2.90;99.90;;;;;;5054282;28;19921;-78
2022/01/05 06:00:31;;;;;;;4.40;2.00;;;2.90;99.90;;;;;;5041450;28;20080;-77
2022/01/05 06:02:58;;;;;;;6.50;1.52;;;2.90;99.90;;;;;;5057522;28;20033;-77
2022/01/05 06:05:23;;;;;;;4.03;1.10;;;2.90;99.90;;;;;;5031449;28;20037;-78
2022/01/05 06:07:49;;;;;;;7.60;1.50;;;3.00;99.90;;;;;;5062646;28;20385;-82
2022/01/05 06:10:15;;;;;;;3.58;1.42;;;3.00;99.90;;;;;;5032551;28;20049;-80
2022/01/05 06:12:41;;;;;;;5.75;1.55;;;3.10;99.90;;;;;;5033977;28;20552;-79
2022/01/05 06:15:07;;;;;;;4.70;1.42;;;3.10;99.90;;;;;;5050287;28;20073;-79
2022/01/05 06:17:32;;;;;;;;;;;3.20;99.90;;;;;;5039327;28;20300;-79
2022/01/05 06:19:58;;;;;;;2.80;1.15;;;3.20;99.90;;;;;;5035480;28;20290;-82
2022/01/05 06:22:25;;;;;;;0.80;0.80;;;3.40;99.90;;;;;;5067835;28;20094;-79
2022/01/05 06:24:51;;;;;;;1.00;0.90;;;3.40;99.90;;;;;;5030122;28;20048;-80
2022/01/05 06:27:17;;;;;;;2.20;1.35;;;3.30;99.90;;;;;;5056981;28;20562;-80
2022/01/05 06:29:42;;;;;;;2.38;0.95;;;3.20;99.90;;;;;;5052045;28;20546;-79
2022/01/05 06:32:08;;;;;;;1.50;1.23;;;3.40;99.90;;;;;;5027431;28;20132;-78
2022/01/05 06:34:34;;;;;;;2.35;1.20;;;3.40;99.90;;;;;;5034373;28;20127;-85
2022/01/05 06:37:00;;;;;;;4.38;1.40;;;3.40;99.90;;;;;;5034225;28;20071;-80
2022/01/05 06:39:26;;;;;;;6.53;1.73;;;3.50;99.90;;;;;;5046856;28;20038;-80
2022/01/05 06:41:51;;;;;;;4.80;1.83;;;3.60;99.90;;;;;;5050119;28;20474;-80
2022/01/05 06:44:17;;;;;;;4.47;1.77;;;3.60;99.90;;;;;;5028817;28;20057;-80
2022/01/05 06:46:43;;;;;;;2.85;1.23;;;3.60;99.90;;;;;;5053861;28;20045;-81
2022/01/05 06:49:09;;;;;;;1.20;1.05;;;3.70;99.90;;;;;;5053293;28;20037;-77
2022/01/05 06:51:34;;;;;;;7.22;2.05;;;3.80;99.90;;;;;;5051636;28;20062;-80
2022/01/05 06:54:00;;;;;;;2.45;1.52;;;3.80;99.90;;;;;;5033930;28;20037;-80
2022/01/05 06:56:26;;;;;;;3.50;1.60;;;3.80;99.90;;;;;;5025128;28;20042;-81
2022/01/05 06:58:52;;;;;;;6.55;1.50;;;4.10;99.90;;;;;;4980626;28;20041;-83
2022/01/05 07:01:18;;;;;;;4.65;1.67;;;3.90;99.90;;;;;;5033781;28;20041;-82
2022/01/05 07:03:43;;;;;;;1.45;1.33;;;3.90;99.90;;;;;;5031494;28;20032;-80
2022/01/05 07:06:09;;;;;;;1.20;0.80;;;3.90;99.90;;;;;;5033133;28;20048;-80
2022/01/05 07:08:35;;;;;;;11.38;1.55;;;3.90;99.90;;;;;;5028262;28;20044;-78
2022/01/05 07:11:01;;;;;;;2.40;1.38;;;3.90;99.90;;;;;;5063362;28;20398;-78
2022/01/05 07:13:26;;;;;;;2.88;2.25;;;3.90;99.90;;;;;;5028522;28;20033;-78
2022/01/05 07:15:52;;;;;;;1.52;1.42;;;3.90;99.90;;;;;;5030769;28;20095;-78
2022/01/05 07:18:18;;;;;;;6.63;1.55;;;4.70;99.90;;;;;;5029044;28;20049;-78
2022/01/05 07:20:45;;;;;;;4.78;1.40;;;3.70;99.90;;;;;;5041961;28;20135;-80
2022/01/05 07:23:10;;;;;;;2.60;1.05;;;3.70;99.90;;;;;;5028618;28;20036;-80
2022/01/05 07:25:36;;;;;;;3.13;1.23;;;3.70;99.90;;;;;;5050077;28;20052;-76
2022/01/05 07:28:02;;;;;;;2.97;1.98;;;3.60;99.90;;;;;;5052826;28;20475;-76
2022/01/05 07:30:28;;;;;;;1.23;0.93;;;3.70;99.90;;;;;;5049587;28;20040;-78
2022/01/05 07:32:53;;;;;;;2.45;1.42;;;3.70;99.90;;;;;;5046509;28;20060;-80
2022/01/05 07:35:19;;;;;;;2.40;0.85;;;3.80;99.90;;;;;;5056985;28;20160;-78
2022/01/05 07:37:45;;;;;;;5.78;1.40;;;3.80;99.90;;;;;;5051470;28;20099;-78
2022/01/05 07:40:12;;;;;;;1.65;1.15;;;3.80;99.90;;;;;;5041477;28;20044;-78
2022/01/05 07:42:38;;;;;;;1.75;1.52;;;3.80;99.90;;;;;;5026376;28;20121;-79
2022/01/05 07:45:07;;;;;;;3.55;1.60;;;4.80;99.90;;;;;;5029313;28;20044;-79
2022/01/05 07:47:33;;;;;;;6.57;1.60;;;3.90;99.90;;;;;;5042714;28;20037;-79
2022/01/05 07:49:59;;;;;;;;;;;3.90;99.90;;;;;;5040874;28;20044;-81
2022/01/05 07:52:26;;;;;;;1.67;1.17;;;3.90;99.90;;;;;;5044229;28;19921;-80
2022/01/05 07:54:53;;;;;;;0.98;0.90;;;3.90;99.90;;;;;;5027949;28;20055;-81
2022/01/05 07:57:21;;;;;;;0.93;0.90;;;3.80;99.90;;;;;;5049387;28;20045;-81
2022/01/05 07:59:48;;;;;;;1.48;0.90;;;3.90;99.90;;;;;;5048605;28;20048;-78
2022/01/05 08:02:13;;;;;;;0.75;0.75;;;4.00;99.90;;;;;;5038331;28;20089;-79
2022/01/05 08:04:39;;;;;;;2.92;0.90;;;4.00;99.90;;;;;;5040838;28;20077;-77
2022/01/05 08:07:05;;;;;;;2.72;1.02;;;4.10;99.90;;;;;;5047613;28;20072;-78
2022/01/05 08:09:31;;;;;;;1.65;1.00;;;4.40;99.90;;;;;;5031510;28;20049;-77
2022/01/05 08:11:57;;;;;;;1.55;1.33;;;4.30;99.90;;;;;;5033738;28;20495;-76
2022/01/05 08:14:23;;;;;;;3.03;1.27;;;4.30;99.90;;;;;;5046010;28;20125;-77
2022/01/05 08:16:49;;;;;;;1.85;1.00;;;4.40;99.90;;;;;;5037441;28;20147;-80
2022/01/05 08:19:14;;;;;;;7.65;1.45;;;4.30;99.90;;;;;;5029483;28;20098;-78
2022/01/05 08:21:40;;;;;;;3.00;1.15;;;4.30;99.90;;;;;;5042375;28;20051;-78
2022/01/05 08:24:06;;;;;;;1.15;1.02;;;4.40;99.90;;;;;;5019384;28;20077;-79
2022/01/05 08:26:32;;;;;;;1.67;1.55;;;4.30;99.90;;;;;;5062303;28;20059;-80
2022/01/05 08:28:58;;;;;;;1.10;1.08;;;4.30;99.90;;;;;;5026733;28;20128;-78
2022/01/05 08:31:23;;;;;;;0.90;0.90;;;4.20;99.90;;;;;;5048627;28;20053;-78
2022/01/05 08:33:49;;;;;;;1.00;0.90;;;4.30;99.90;;;;;;5018587;28;20040;-81
2022/01/05 08:36:15;;;;;;;7.18;1.50;;;4.30;99.90;;;;;;5030586;28;20051;-77
2022/01/05 08:38:41;;;;;;;3.58;1.50;;;4.30;99.90;;;;;;5031287;28;20072;-79
2022/01/05 08:41:07;;;;;;;2.92;1.40;;;4.40;99.90;;;;;;5050654;28;20037;-79
2022/01/05 08:43:33;;;;;;;0.60;0.60;;;4.50;99.90;;;;;;5035703;28;20105;-79
2022/01/05 08:46:00;;;;;;;0.88;0.88;;;4.50;99.90;;;;;;5042457;28;20059;-79
2022/01/05 08:48:26;;;;;;;4.32;1.67;;;4.60;99.90;;;;;;5035895;28;20041;-78
2022/01/05 08:50:52;;;;;;;1.02;1.02;;;4.70;99.90;;;;;;5030171;28;20537;-76
2022/01/05 08:53:18;;;;;;;5.05;1.58;;;4.70;99.90;;;;;;5047850;28;20053;-82
2022/01/05 08:55:47;;;;;;;11.73;1.63;;;4.80;99.90;;;;;;5026851;28;20041;-77
2022/01/05 08:58:16;;;;;;;5.68;1.20;;;4.90;99.90;;;;;;5063195;28;20495;-79
2022/01/05 09:00:42;;;;;;;1.50;0.88;;;5.10;99.90;;;;;;5041681;28;20044;-79
2022/01/05 09:03:09;;;;;;;1.58;1.45;;;5.00;99.90;;;;;;5028363;28;20076;-81
2022/01/05 09:05:35;;;;;;;6.85;1.92;;;5.00;99.90;;;;;;5024020;28;20045;-79
2022/01/05 09:08:01;;;;;;;3.00;1.27;;;5.00;99.90;;;;;;5029641;28;20255;-78
2022/01/05 09:10:27;;;;;;;7.55;1.83;;;5.00;99.90;;;;;;5030633;28;20113;-78
2022/01/05 09:12:53;;;;;;;;;;;5.20;99.90;;;;;;5049558;28;20058;-79
2022/01/05 09:15:19;;;;;;;2.88;1.20;;;5.10;99.90;;;;;;5064956;28;19920;-79
2022/01/05 09:17:45;;;;;;;;;;;5.10;99.90;;;;;;5048073;28;20044;-79
2022/01/05 09:20:11;;;;;;;2.00;1.40;;;5.10;99.90;;;;;;5030177;28;20577;-79
2022/01/05 09:22:46;;;;;;;1.30;1.00;;;5.10;99.90;;;;;;5039847;28;20052;-77
2022/01/05 09:25:18;;;;;;;3.90;1.55;;;6.00;99.90;;;;;;5010627;28;20046;-78
2022/01/05 09:27:45;;;;;;;3.22;1.40;;;5.10;99.90;;;;;;5043114;28;20073;-81
2022/01/05 09:30:17;;;;;;;13.10;1.60;;;5.10;99.90;;;;;;5031664;28;20048;-78
2022/01/05 09:32:43;;;;;;;5.00;1.33;;;5.20;99.90;;;;;;5044827;28;20065;-79
2022/01/05 09:35:13;;;;;;;1.55;1.15;;;5.40;99.90;;;;;;5013243;28;20140;-77
2022/01/05 09:43:06;;;;;;;7.28;1.25;;;5.60;99.90;;;;;;5043963;28;20041;-79
2022/01/05 09:45:35;;;;;;;7.57;2.03;;;5.60;99.90;;;;;;5018257;28;20044;-79
2022/01/05 09:48:08;;;;;;;8.52;1.52;;;5.70;99.90;;;;;;5031917;28;20461;-77
2022/01/05 09:50:36;;;;;;;5.50;1.10;;;5.70;99.90;;;;;;5042262;28;20487;-78
2022/01/05 09:53:03;;;;;;;2.78;1.15;;;5.70;99.90;;;;;;5026196;28;20053;-78
2022/01/05 09:55:35;;;;;;;7.72;3.03;;;5.90;99.90;;;;;;5039023;28;20048;-80
2022/01/05 09:58:01;;;;;;;3.97;1.30;;;5.90;99.90;;;;;;5010351;28;20367;-79
2022/01/05 10:00:26;;;;;;;2.28;1.98;;;5.90;99.90;;;;;;5040104;28;20038;-80
2022/01/05 10:02:53;;;;;;;5.97;1.33;;;5.90;99.90;;;;;;5024406;28;20057;-78
2022/01/05 10:05:19;;;;;;;1.25;0.98;;;6.00;99.90;;;;;;5027269;28;20414;-77
2022/01/05 10:07:45;;;;;;;5.60;1.60;;;6.00;99.90;;;;;;5038729;28;20037;-80
2022/01/05 10:10:11;;;;;;;4.47;1.80;;;6.00;99.90;;;;;;5029730;28;20045;-78
2022/01/05 10:12:37;;;;;;;;;;;6.00;99.90;;;;;;5045538;28;20053;-80
2022/01/05 10:15:04;;;;;;;3.88;1.30;;;6.00;99.90;;;;;;5032161;28;19920;-78
2022/01/05 10:17:38;;;;;;;2.00;1.27;;;6.10;99.90;;;;;;5065002;28;20049;-79
2022/01/05 10:20:09;;;;;;;1.13;1.02;;;6.20;99.90;;;;;;5045160;28;20110;-78
2022/01/05 10:22:44;;;;;;;6.10;2.03;;;6.20;99.90;;;;;;5046441;28;20045;-76
2022/01/05 10:25:20;;;;;;;4.03;1.17;;;6.30;99.90;;;;;;5041128;28;20069;-77
2022/01/05 10:27:56;;;;;;;2.55;1.33;;;6.40;99.90;;;;;;5045513;28;20045;-78
2022/01/05 10:30:32;;;;;;;2.80;1.15;;;6.40;99.90;;;;;;5029678;28;20130;-78
2022/01/05 10:32:58;;;;;;;1.48;0.93;;;6.10;99.90;;;;;;5020114;28;20057;-79
2022/01/05 10:35:27;;;;;;;4.32;1.77;;;6.50;99.90;;;;;;5009452;28;20099;-78
2022/01/05 10:37:58;;;;;;;1.67;1.05;;;6.80;99.90;;;;;;5038847;28;20861;-77
2022/01/05 10:40:24;;;;;;;9.32;1.52;;;6.70;99.90;;;;;;5041098;28;20038;-78
2022/01/05 10:42:53;;;;;;;3.38;1.00;;;6.70;99.90;;;;;;5039771;28;20263;-80
2022/01/05 10:45:38;;;;;;;6.85;1.27;;;6.80;99.90;;;;;;5029826;28;20147;-78
2022/01/05 10:48:15;;;;;;;5.78;1.60;;;6.80;99.90;;;;;;5044282;28;20040;-78
2022/01/05 10:50:43;;;;;;;7.97;1.67;;;6.80;99.90;;;;;;5029516;28;20049;-80
2022/01/05 10:53:08;;;;;;;15.10;1.67;;;6.80;99.90;;;;;;5028183;28;20041;-77
2022/01/05 10:55:45;;;;;;;7.30;1.67;;;6.80;99.90;;;;;;5040349;28;20048;-77
2022/01/05 10:58:17;;;;;;;4.40;1.95;;;6.80;99.90;;;;;;5044903;28;20084;-77
2022/01/05 11:00:44;;;;;;;2.85;0.98;;;6.90;99.90;;;;;;5028741;28;20047;-77
2022/01/05 11:03:24;;;;;;;8.57;1.95;;;6.90;99.90;;;;;;5041640;28;20049;-78
2022/01/05 11:06:09;;;;;;;9.13;2.17;;;7.00;99.90;;;;;;5048198;28;20037;-77
2022/01/05 11:08:54;;;;;;;6.65;2.05;;;7.10;99.90;;;;;;5065266;28;20048;-79
2022/01/05 11:11:37;;;;;;;7.10;1.90;;;7.10;99.90;;;;;;5042144;28;20562;-79
2022/01/05 11:14:04;;;;;;;2.55;1.00;;;7.10;99.90;;;;;;5046134;28;20056;-79
2022/01/05 11:16:31;;;;;;;4.10;1.70;;;7.20;99.90;;;;;;5046047;28;20183;-79
2022/01/05 11:19:21;;;;;;;4.57;2.63;;;7.70;99.90;;;;;;5072296;28;20649;-77
2022/01/05 11:22:17;;;;;;;11.20;2.80;;;7.20;99.90;;;;;;5079093;28;20033;-80
2022/01/05 11:24:49;;;;;;;12.25;2.20;;;7.30;99.90;;;;;;5018217;28;20044;-78
2022/01/05 11:27:20;;;;;;;4.18;2.25;;;7.30;99.90;;;;;;5047077;28;20353;-79
2022/01/05 11:29:47;;;;;;;4.68;1.65;;;7.30;99.90;;;;;;5029061;28;20048;-79
2022/01/05 11:32:16;;;;;;;12.93;1.73;;;7.30;99.90;;;;;;5055262;28;20068;-79
2022/01/05 11:34:45;;;;;;;3.83;1.40;;;7.30;99.90;;;;;;5028629;28;20052;-78
2022/01/05 11:37:10;;;;;;;6.80;1.63;;;7.30;99.90;;;;;;5044627;28;20103;-76
2022/01/05 11:39:42;;;;;;;1.63;1.48;;;7.30;99.90;;;;;;5044061;28;20459;-79
2022/01/05 11:42:12;;;;;;;4.80;1.23;;;7.50;99.90;;;;;;5057375;28;20043;-77
2022/01/05 11:44:50;;;;;;;3.83;1.25;;;7.60;99.90;;;;;;5048502;28;20043;-76
2022/01/05 11:47:27;;;;;;;0.98;0.95;;;7.60;99.90;;;;;;5078980;28;20053;-78
2022/01/05 11:49:55;;;;;;;5.38;2.08;;;7.60;99.90;;;;;;5059074;28;20136;-78
2022/01/05 11:52:52;;;;;;;6.90;1.42;;;7.60;99.90;;;;;;5051988;28;20123;-79
2022/01/05 11:55:18;;;;;;;2.95;1.67;;;7.50;99.90;;;;;;5063451;28;20043;-78
2022/01/05 11:58:19;;;;;;;1.25;1.15;;;7.50;99.90;;;;;;5012325;28;20041;-78
2022/01/05 12:00:47;;;;;;;2.15;1.70;;;7.50;99.90;;;;;;5061070;28;20051;-77
2022/01/05 12:03:34;;;;;;;4.18;1.60;;;7.50;99.90;;;;;;5065586;28;20509;-81
2022/01/05 12:06:07;;;;;;;2.53;1.48;;;6.20;99.90;;;;;;5035568;28;20060;-78
2022/01/05 12:08:46;;;;;;;4.05;2.00;;;7.50;99.90;;;;;;5049238;28;20033;-78
2022/01/05 12:11:39;;;;;;;2.42;1.27;;;7.50;99.90;;;;;;5049203;28;20087;-78
2022/01/05 12:14:21;;;;;;;3.78;1.27;;;7.50;99.90;;;;;;5042560;28;20099;-79
2022/01/05 12:17:02;;;;;;;7.97;1.75;;;7.50;99.90;;;;;;5044204;28;20071;-79
2022/01/05 12:19:41;;;;;;;3.65;1.25;;;7.40;99.90;;;;;;5047093;28;20135;-79
2022/01/05 12:22:24;;;;;;;0.93;0.93;;;7.30;99.90;;;;;;5045330;28;20050;-78
2022/01/05 12:24:56;;;;;;;2.47;1.08;;;7.20;99.90;;;;;;5039334;28;20473;-78
2022/01/05 12:27:23;;;;;;;3.63;1.17;;;7.10;99.90;;;;;;5045869;28;20541;-77
2022/01/05 12:29:49;;;;;;;1.10;1.00;;;7.00;99.90;;;;;;5045541;28;20033;-78
2022/01/05 12:32:33;;;;;;;;;;;7.00;99.90;;;;;;5032393;28;20120;-79
2022/01/05 12:35:02;;;;;;;5.20;1.30;;;7.00;99.90;;;;;;5045752;28;19920;-76
2022/01/05 12:37:47;;;;;;;1.92;1.50;;;7.00;99.90;;;;;;5029456;28;20049;-77
2022/01/05 12:40:35;;;;;;;8.27;1.55;;;7.10;99.90;;;;;;5040842;28;20045;-74
2022/01/05 12:43:10;;;;;;;1.63;0.80;;;7.10;99.90;;;;;;5046556;28;20049;-76
2022/01/05 12:45:51;;;;;;;4.60;1.77;;;7.20;99.90;;;;;;5045567;28;20116;-74
2022/01/05 12:48:32;;;;;;;8.65;1.30;;;7.20;99.90;;;;;;5045191;28;20045;-76
2022/01/05 12:51:23;;;;;;;6.57;1.20;;;7.20;99.90;;;;;;5046310;28;20045;-78
2022/01/05 12:53:52;;;;;;;10.43;1.65;;;7.20;99.90;;;;;;5048349;28;20049;-77
2022/01/05 12:56:28;;;;;;;13.73;1.92;;;7.10;99.90;;;;;;5046930;28;20048;-78
2022/01/05 12:58:56;;;;;;;4.03;1.35;;;7.00;99.90;;;;;;5021154;28;20148;-77
2022/01/05 13:01:24;;;;;;;5.30;1.63;;;7.00;99.90;;;;;;5078029;28;20055;-76
2022/01/05 13:03:51;;;;;;;7.85;1.48;;;7.00;99.90;;;;;;5046769;28;20497;-77
2022/01/05 13:06:20;;;;;;;20.92;2.22;;;7.10;99.90;;;;;;5035611;28;20045;-75
2022/01/05 13:08:52;;;;;;;1.85;1.33;;;7.30;99.90;;;;;;5048356;28;20041;-76
2022/01/05 13:11:43;;;;;;;2.50;0.98;;;7.30;99.90;;;;;;5048270;28;20045;-76